createdAt,value
2023-01-24T00:01:18.264Z,100016.34
2023-01-24T00:03:46.599Z,100018.54
2023-01-24T00:06:15.157Z,100016.53
2023-01-24T00:08:43.413Z,100015.48
2023-01-24T00:11:12.392Z,100019.56
2023-01-24T00:13:40.604Z,100019.66
2023-01-24T00:16:20.101Z,100021.03
2023-01-24T00:18:48.921Z,100023.23
2023-01-24T00:21:23.666Z,100029.27
2023-01-24T00:23:53.686Z,100029.21
2023-01-24T00:26:22.916Z,100034.16
2023-01-24T00:28:52.289Z,100036.85
2023-01-24T00:31:20.617Z,100035.04
2023-01-24T00:33:49.256Z,100036.79
2023-01-24T00:36:21.231Z,100034.33
2023-01-24T00:38:49.483Z,100035.40
2023-01-24T00:41:17.684Z,100035.06
2023-01-24T00:43:46.657Z,100036.84
2023-01-24T00:46:15.006Z,100038.70
2023-01-24T00:48:45.900Z,100039.23
2023-01-24T00:51:15.611Z,100035.91
2023-01-24T00:53:44.020Z,100035.82
2023-01-24T00:56:12.193Z,100037.02
2023-01-24T00:58:40.549Z,100039.04
2023-01-24T01:01:08.981Z,100037.36
2023-01-24T01:03:38.840Z,100039.06
2023-01-24T01:06:09.040Z,100036.36
2023-01-24T01:08:37.727Z,100039.59
2023-01-24T01:11:06.309Z,100039.32
2023-01-24T01:13:34.682Z,100034.86
2023-01-24T01:16:07.273Z,100039.16
2023-01-24T01:18:36.087Z,100038.64
2023-01-24T01:21:04.596Z,100041.08
2023-01-24T01:23:33.505Z,100039.05
2023-01-24T01:26:02.550Z,100036.34
2023-01-24T01:28:30.792Z,100038.23
2023-01-24T03:41:04.546Z,100046.11
2023-01-24T03:43:33.693Z,100051.73
2023-01-24T03:46:01.967Z,100048.35
2023-01-24T03:48:40.131Z,100049.89
2023-01-24T03:51:28.137Z,100049.55
2023-01-24T03:53:56.660Z,100048.23
2023-01-24T03:56:28.937Z,100050.03
2023-01-24T03:58:59.856Z,100048.02
2023-01-24T04:01:30.447Z,100051.38
2023-01-24T04:04:08.722Z,100052.73
2023-01-24T04:06:36.875Z,100051.67
2023-01-24T04:09:06.470Z,100057.80
2023-01-24T04:11:35.350Z,100059.17
2023-01-24T04:14:09.365Z,100059.40
2023-01-24T04:16:40.926Z,100057.50
2023-01-24T04:19:17.328Z,100054.88
2023-01-24T04:21:45.542Z,100055.22
2023-01-24T04:24:14.164Z,100055.91
2023-01-24T04:26:44.582Z,100054.97
2023-01-24T04:29:17.214Z,100051.83
2023-01-24T04:31:46.748Z,100052.17
2023-01-24T04:34:36.915Z,100056.50
2023-01-24T04:37:05.667Z,100054.21
2023-01-24T04:39:33.858Z,100055.41
2023-01-24T04:42:11.940Z,100052.01
2023-01-24T04:44:40.432Z,100050.42
2023-01-24T04:47:10.866Z,100054.26
2023-01-24T04:49:40.604Z,100054.27
2023-01-24T04:52:12.244Z,100056.88
2023-01-24T04:55:01.043Z,100057.38
2023-01-24T04:57:30.520Z,100056.22
2023-01-24T04:59:58.677Z,100057.20
2023-01-24T05:02:33.758Z,100058.47
2023-01-24T05:05:03.031Z,100055.73
2023-01-24T05:07:31.394Z,100055.84
2023-01-24T05:10:03.166Z,100061.63
2023-01-24T05:12:31.911Z,100063.04
2023-01-24T05:15:02.924Z,100062.25
2023-01-24T05:17:31.735Z,100062.92
2023-01-24T05:20:00.172Z,100062.75
2023-01-24T05:22:29.507Z,100065.09
2023-01-24T05:24:57.749Z,100062.61
2023-01-24T05:27:26.380Z,100058.67
2023-01-24T05:29:58.625Z,100057.05
2023-01-24T05:32:27.969Z,100057.09
2023-01-24T05:34:56.113Z,100058.27
2023-01-24T05:37:24.978Z,100065.59
2023-01-24T05:39:53.271Z,100069.05
2023-01-24T05:42:21.412Z,100074.78
2023-01-24T05:44:51.826Z,100078.36
2023-01-24T05:47:20.239Z,100077.63
2023-01-24T05:49:49.360Z,100080.11
2023-01-24T05:52:22.737Z,100081.88
2023-01-24T05:54:53.140Z,100083.87
2023-01-24T05:57:31.505Z,100085.02
2023-01-24T06:00:19.372Z,100091.64
2023-01-24T06:03:11.166Z,100092.95
2023-01-24T06:05:39.805Z,100090.16
2023-01-24T06:08:10.171Z,100095.08
2023-01-24T06:10:39.608Z,100096.05
2023-01-24T06:13:13.164Z,100099.73
2023-01-24T06:15:41.912Z,100103.91
2023-01-24T06:18:15.384Z,100109.94
2023-01-24T06:20:45.079Z,100108.80
2023-01-24T06:23:21.966Z,100111.27
2023-01-24T06:25:50.548Z,100110.42
2023-01-24T06:28:18.874Z,100112.64
2023-01-24T06:31:42.939Z,100112.93
2023-01-24T06:34:26.412Z,100106.09
2023-01-24T06:37:15.947Z,100107.63
2023-01-24T06:39:52.792Z,100109.55
2023-01-24T06:42:22.112Z,100115.94
2023-01-24T06:44:50.416Z,100116.36
2023-01-24T06:47:18.887Z,100120.89
2023-01-24T06:49:47.132Z,100120.92
2023-01-24T06:52:15.414Z,100121.09
2023-01-24T06:54:43.565Z,100120.40
2023-01-24T06:57:11.710Z,100122.31
2023-01-24T06:59:40.918Z,100120.17
2023-01-24T07:02:11.014Z,100122.80
2023-01-24T07:04:39.074Z,100126.58
2023-01-24T10:21:41.835Z,100110.47
2023-01-24T10:24:22.523Z,100105.73
2023-01-24T10:26:52.362Z,100108.96
2023-01-24T10:29:28.346Z,100107.59
2023-01-24T10:32:05.064Z,100104.38
2023-01-24T10:34:43.109Z,100097.27
2023-01-24T10:37:17.184Z,100096.89
2023-01-24T10:39:46.045Z,100091.73
2023-01-24T10:42:33.332Z,100085.30
2023-01-24T10:45:24.708Z,100083.13
2023-01-24T10:48:32.569Z,100076.52
2023-01-24T10:51:21.768Z,100072.58
2023-01-24T10:53:56.062Z,100075.52
2023-01-24T10:56:24.439Z,100068.59
2023-01-24T10:59:13.747Z,100069.61
2023-01-24T11:01:48.192Z,100067.32
2023-01-24T11:04:26.689Z,100064.03
2023-01-24T11:06:54.965Z,100067.11
2023-01-24T11:09:30.939Z,100063.88
2023-01-24T11:11:59.935Z,100063.23
2023-01-24T11:14:33.824Z,100068.52
2023-01-24T11:17:02.618Z,100064.73
2023-01-24T11:19:40.304Z,100070.02
2023-01-24T11:22:23.436Z,100063.95
2023-01-24T11:24:53.847Z,100059.42
2023-01-24T11:27:33.626Z,100059.27
2023-01-24T11:30:14.350Z,100050.98
2023-01-24T11:33:04.820Z,100050.05
2023-01-24T11:35:38.718Z,100050.23
2023-01-24T11:38:42.519Z,100051.02
2023-01-24T11:41:11.857Z,100045.34
2023-01-24T11:43:43.422Z,100046.42
2023-01-24T11:46:25.904Z,100048.23
2023-01-24T11:49:00.238Z,100045.39
2023-01-24T11:51:31.511Z,100044.46
2023-01-24T11:54:09.134Z,100039.43
2023-01-24T11:57:02.049Z,100035.29
2023-01-24T11:59:42.908Z,100036.89
2023-01-24T12:02:19.693Z,100036.21
2023-01-24T12:05:06.350Z,100037.55
2023-01-24T12:08:12.780Z,100034.71
2023-01-24T12:11:38.453Z,100034.28
2023-01-24T12:14:21.886Z,100036.98
2023-01-24T12:17:32.069Z,100039.59
2023-01-24T12:20:31.030Z,100043.25
2023-01-24T12:23:22.360Z,100040.48
2023-01-24T12:25:58.397Z,100038.67
2023-01-24T12:28:44.770Z,100038.81
2023-01-24T12:31:16.970Z,100038.73
2023-01-24T12:33:51.164Z,100037.23
2023-01-24T12:36:45.196Z,100038.65
2023-01-24T12:39:20.696Z,100037.73
2023-01-24T12:42:06.100Z,100037.22
2023-01-24T12:44:43.034Z,100038.98
2023-01-24T12:47:11.338Z,100043.08
2023-01-24T12:50:05.543Z,100039.77
2023-01-24T12:52:49.149Z,100044.02
2023-01-24T12:55:26.366Z,100044.45
2023-01-24T12:58:02.468Z,100049.72
2023-01-24T13:00:42.878Z,100053.82
2023-01-24T16:30:27.797Z,100106.52
2023-01-24T16:32:56.342Z,100108.28
2023-01-24T16:35:25.236Z,100108.31
2023-01-24T16:37:53.709Z,100101.92
2023-01-24T16:40:22.406Z,100099.52
2023-01-24T16:42:50.664Z,100101.49
2023-01-24T16:45:25.340Z,100097.79
2023-01-24T16:47:55.156Z,100100.44
2023-01-24T16:50:27.970Z,100099.25
2023-01-24T16:52:59.890Z,100104.33
2023-01-24T16:55:29.783Z,100103.77
2023-01-24T16:58:00.893Z,100105.98
2023-01-24T17:00:30.506Z,100109.25
2023-01-24T17:03:00.114Z,100108.03
2023-01-24T17:05:30.274Z,100108.12
2023-01-24T17:08:02.123Z,100110.67
2023-01-24T17:10:32.725Z,100109.80
2023-01-24T17:13:21.283Z,100109.95
2023-01-24T17:15:53.309Z,100106.81
2023-01-24T17:18:25.541Z,100104.40
2023-01-24T17:20:56.987Z,100105.71
2023-01-24T17:23:44.875Z,100104.27
2023-01-24T17:26:52.349Z,100106.35
2023-01-24T17:29:30.839Z,100105.79
2023-01-24T17:31:59.148Z,100104.05
2023-01-24T17:34:27.614Z,100098.19
2023-01-24T17:36:59.861Z,100101.77
2023-01-24T17:39:50.283Z,100105.00
2023-01-24T17:42:19.345Z,100107.78
2023-01-24T17:44:47.993Z,100109.45
2023-01-24T17:47:17.274Z,100105.77
2023-01-24T17:49:50.355Z,100106.48
2023-01-24T17:52:27.395Z,100102.20
2023-01-24T17:54:57.769Z,100103.02
2023-01-24T17:57:32.188Z,100103.39
2023-01-24T18:00:15.842Z,100098.95
2023-01-24T18:02:49.238Z,100097.95
2023-01-24T18:05:17.305Z,100093.71
2023-01-24T18:07:45.838Z,100089.98
2023-01-24T18:10:15.308Z,100089.80
2023-01-24T18:12:45.044Z,100092.10
2023-01-24T18:15:14.198Z,100091.77
2023-01-24T18:17:42.638Z,100090.41
2023-01-24T18:20:24.550Z,100088.84
2023-01-24T18:23:04.207Z,100089.98
2023-01-24T18:25:43.570Z,100083.80
2023-01-24T18:29:19.387Z,100084.75
2023-01-24T18:32:01.537Z,100082.58
2023-01-24T18:34:35.509Z,100084.89
2023-01-24T18:37:05.461Z,100084.98
2023-01-24T18:39:38.269Z,100086.52
2023-01-24T18:42:08.351Z,100082.79
2023-01-24T18:44:37.112Z,100076.80
2023-01-24T18:47:05.521Z,100077.98
2023-01-24T18:52:17.654Z,100069.67
2023-01-24T18:54:58.305Z,100067.50
2023-01-24T18:57:29.197Z,100067.26
2023-01-24T18:59:57.328Z,100065.80
2023-01-24T21:59:43.600Z,100026.95
2023-01-24T22:02:17.883Z,100027.00
2023-01-24T22:04:45.795Z,100024.63
2023-01-24T22:07:17.290Z,100025.27
2023-01-24T22:09:44.730Z,100021.93
2023-01-24T22:12:14.723Z,100017.05
2023-01-24T22:14:42.952Z,100016.89
2023-01-24T22:17:18.808Z,100017.96
2023-01-24T22:19:53.343Z,100021.59
2023-01-24T22:22:29.922Z,100021.34
2023-01-24T22:25:01.078Z,100015.07
2023-01-24T22:27:28.233Z,100012.29
2023-01-24T22:29:55.309Z,100010.67
2023-01-24T22:32:22.657Z,100009.67
2023-01-24T22:34:49.933Z,100008.23
2023-01-24T22:37:30.359Z,100003.58
2023-01-24T22:39:57.470Z,100004.83
2023-01-24T22:42:24.370Z,100007.95
2023-01-24T22:44:51.242Z,100007.73
2023-01-24T22:47:18.987Z,100008.60
2023-01-24T22:49:45.888Z,100009.04
2023-01-24T22:52:12.896Z,100006.16
2023-01-24T22:54:40.520Z,100001.23
2023-01-24T22:57:07.612Z,100000.23
2023-01-24T22:59:35.042Z,100000.54
2023-01-24T23:02:03.550Z,100002.73
2023-01-24T23:04:30.986Z,100000.73
2023-01-24T23:06:57.917Z,99997.77
2023-01-24T23:09:25.040Z,99999.22
2023-01-24T23:11:51.712Z,99997.45
2023-01-24T23:14:37.174Z,100000.84
2023-01-24T23:17:04.768Z,99997.36
2023-01-24T23:20:11.497Z,99999.00
2023-01-24T23:22:38.252Z,99991.27
2023-01-24T23:25:05.788Z,99985.98
2023-01-24T23:27:34.702Z,99983.88
2023-01-24T23:30:18.838Z,99977.90
2023-01-24T23:32:46.505Z,99976.30
2023-01-24T23:35:13.802Z,99978.82
2023-01-24T23:37:40.687Z,99980.35
2023-01-24T23:40:08.866Z,99980.98
2023-01-24T23:42:35.921Z,99976.88
2023-01-24T23:45:04.582Z,99978.61
2023-01-24T23:47:32.295Z,99979.01
2023-01-24T23:49:59.114Z,99977.09
2023-01-24T23:52:25.926Z,99973.08
2023-01-24T23:54:52.736Z,99971.41
2023-01-24T23:57:19.668Z,99972.10
2023-01-24T23:59:46.527Z,99972.34
